Time;durP1;ratioP1;P1;durP2;ratioP2;P2;SDS_P1;SDS_P2;PMS_P1;PMS_P2;Temp;Humidity;BMP_temperature;BMP_pressure;BME280_temperature;BME280_humidity;BME280_pressure;Samples;Min_cycle;Max_cycle;Signal;HPM_P1;HPM_P2
2022/05/08 00:00:01;;;;;;;8.63;3.87;;;;;;;11.25;55.64;150480.50;1740296;82;21091;-60
2022/05/08 00:02:29;;;;;;;13.40;3.92;;;;;;;11.15;56.64;150457.11;1740143;82;21239;-62
2022/05/08 00:04:56;;;;;;;12.23;4.53;;;;;;;11.07;57.41;150436.36;1740360;82;21037;-60
2022/05/08 00:07:23;;;;;;;8.03;3.70;;;;;;;11.01;58.01;150420.78;1739781;82;21128;-60
2022/05/08 00:09:50;;;;;;;11.12;4.97;;;;;;;10.97;58.21;150411.69;1740528;82;21025;-60
2022/05/08 00:12:17;;;;;;;7.60;4.22;;;;;;;10.94;58.45;150402.58;1740151;82;21052;-60
2022/05/08 00:14:45;;;;;;;6.60;3.05;;;;;;;10.91;58.44;150396.13;1740753;82;21223;-60
2022/05/08 00:17:13;;;;;;;10.48;3.10;;;;;;;10.88;58.01;150389.63;1740364;82;21029;-60
2022/05/08 00:19:47;;;;;;;8.65;2.85;;;;;;;10.89;57.13;150392.22;1740911;82;21084;-60
2022/05/08 00:22:14;;;;;;;8.83;3.10;;;;;;;10.93;56.92;150401.31;1740390;82;21083;-60
2022/05/08 00:24:42;;;;;;;4.62;2.12;;;;;;;10.96;56.62;150407.81;1740733;82;21052;-60
2022/05/08 00:27:09;;;;;;;4.25;2.00;;;;;;;10.97;55.60;150410.42;1742759;81;21878;-60
2022/05/08 00:29:36;;;;;;;7.25;1.75;;;;;;;11.01;54.51;150420.78;1740519;82;21505;-60
2022/05/08 00:32:04;;;;;;;5.35;2.00;;;;;;;11.06;53.80;150433.77;1740414;82;21032;-60
2022/05/08 00:34:34;;;;;;;5.62;2.17;;;;;;;11.11;53.67;150446.73;1743396;80;22088;-60
2022/05/08 00:37:05;;;;;;;8.80;2.05;;;;;;;11.15;53.60;150457.11;1743023;82;21062;-60
2022/05/08 00:39:34;;;;;;;3.42;1.92;;;;;;;11.16;52.96;150459.75;1740690;82;21851;-60
2022/05/08 00:42:01;;;;;;;8.10;2.65;;;;;;;11.21;52.51;150471.41;1741204;82;21092;-59
2022/05/08 00:44:28;;;;;;;7.00;3.12;;;;;;;11.25;53.30;150480.50;1740706;82;20977;-59
2022/05/08 00:46:55;;;;;;;7.05;3.30;;;;;;;11.18;54.29;150464.94;1740710;82;20930;-61
2022/05/08 00:49:23;;;;;;;5.67;3.05;;;;;;;11.07;55.30;150436.36;1740655;82;21847;-59
2022/05/08 00:51:50;;;;;;;9.03;3.20;;;;;;;10.97;56.38;150410.42;1743035;82;21223;-59
2022/05/08 00:54:17;;;;;;;8.28;3.65;;;;;;;10.86;56.78;150384.44;1742770;82;21020;-59
2022/05/08 00:56:45;;;;;;;8.23;3.42;;;;;;;10.78;56.94;150363.69;1742893;82;21450;-59
2022/05/08 00:59:12;;;;;;;6.72;3.05;;;;;;;10.74;57.10;150353.31;1742806;82;21509;-60
2022/05/08 01:01:39;;;;;;;10.58;3.75;;;;;;;10.70;57.24;150342.88;1711737;82;21056;-60
2022/05/08 01:04:06;;;;;;;12.80;6.10;;;;;;;10.67;57.54;150335.09;1741935;82;21081;-60
2022/05/08 01:06:35;;;;;;;9.98;3.72;;;;;;;10.63;57.78;150324.73;1742284;82;21044;-59
2022/05/08 01:09:02;;;;;;;6.03;2.87;;;;;;;10.63;57.39;150324.73;1742261;82;20993;-60
2022/05/08 01:11:29;;;;;;;6.60;2.50;;;;;;;10.64;57.00;150327.33;1742587;82;21024;-59
2022/05/08 01:13:57;;;;;;;6.28;2.15;;;;;;;10.64;56.63;150327.33;1742598;81;21000;-61
2022/05/08 01:16:24;;;;;;;5.62;2.00;;;;;;;10.68;56.14;150337.70;1742413;82;21569;-59
2022/05/08 01:18:51;;;;;;;6.58;2.22;;;;;;;10.71;55.64;150345.48;1742918;81;21020;-59
2022/05/08 01:21:37;;;;;;;6.92;1.92;;;;;;;10.72;55.14;150349.39;1742527;82;20940;-59
2022/05/08 01:24:06;;;;;;;11.95;2.27;;;;;;;10.75;54.86;150357.17;1742904;82;21647;-62
2022/05/08 01:26:34;;;;;;;3.75;2.00;;;;;;;10.81;53.97;150370.14;1743149;82;22235;-60
2022/05/08 01:29:04;;;;;;;4.33;2.00;;;;;;;10.90;53.59;150393.53;1742558;82;21905;-61
2022/05/08 01:31:32;;;;;;;8.00;2.27;;;;;;;10.98;53.56;150413.00;1742449;81;21474;-59
2022/05/08 01:33:59;;;;;;;9.70;2.25;;;;;;;11.02;53.83;150423.37;1743162;82;20850;-59
2022/05/08 01:36:26;;;;;;;11.60;2.75;;;;;;;11.08;54.34;150437.67;1742559;82;21446;-59
2022/05/08 01:38:56;;;;;;;4.90;2.37;;;;;;;11.16;55.14;150458.44;1740899;81;21005;-59
2022/05/08 01:41:23;;;;;;;6.72;2.80;;;;;;;11.22;55.44;150474.00;1742541;82;21223;-59
2022/05/08 01:43:51;;;;;;;5.90;3.00;;;;;;;11.26;55.85;150483.09;1742943;81;20898;-59
2022/05/08 01:46:20;;;;;;;10.55;3.15;;;;;;;11.29;56.58;150490.88;1742449;82;21036;-58
2022/05/08 01:48:48;;;;;;;8.50;3.05;;;;;;;11.31;57.37;150496.06;1742846;82;21605;-59
2022/05/08 01:51:16;;;;;;;6.05;3.20;;;;;;;11.28;57.92;150488.28;1742876;82;21053;-59
2022/05/08 01:53:44;;;;;;;6.65;3.05;;;;;;;11.24;58.85;150477.91;1742971;82;21930;-59
2022/05/08 01:56:12;;;;;;;7.35;3.62;;;;;;;11.20;59.55;150467.53;1742472;82;21083;-59
2022/05/08 01:58:40;;;;;;;7.40;3.80;;;;;;;11.16;59.43;150458.44;1742972;82;21012;-59
2022/05/08 02:01:08;;;;;;;10.80;4.75;;;;;;;11.14;59.58;150453.23;1742323;82;21040;-59
2022/05/08 02:03:35;;;;;;;7.03;3.12;;;;;;;11.10;59.90;150444.14;1743121;82;21107;-58
2022/05/08 02:06:03;;;;;;;8.83;2.98;;;;;;;11.05;61.64;150431.16;1742629;82;21903;-60
2022/05/08 02:08:30;;;;;;;12.82;6.92;;;;;;;11.07;62.84;150436.36;1742644;82;21032;-59
2022/05/08 02:10:57;;;;;;;13.48;7.33;;;;;;;11.10;62.80;150444.14;1742581;82;20940;-61
2022/05/08 02:13:25;;;;;;;15.15;6.85;;;;;;;11.05;61.52;150431.16;1742068;82;21059;-60
2022/05/08 02:15:52;;;;;;;12.05;5.50;;;;;;;10.92;60.61;150397.41;1742499;82;21513;-59
2022/05/08 02:18:19;;;;;;;17.62;8.03;;;;;;;10.75;60.56;150357.17;1741877;82;21838;-60
2022/05/08 02:20:47;;;;;;;15.08;8.78;;;;;;;10.60;61.43;150318.22;1742310;82;21061;-58
2022/05/08 02:23:15;;;;;;;21.25;13.13;;;;;;;10.47;62.54;150285.78;1741619;82;21068;-58
2022/05/08 02:25:42;;;;;;;15.35;8.85;;;;;;;10.37;63.57;150261.08;1742365;82;21558;-59
2022/05/08 02:28:09;;;;;;;17.07;9.68;;;;;;;10.29;64.63;150241.66;1741895;82;21052;-59
2022/05/08 02:30:36;;;;;;;19.35;11.60;;;;;;;10.21;65.72;150219.59;1742112;82;21227;-59
2022/05/08 02:33:03;;;;;;;27.00;18.73;;;;;;;10.11;67.00;150194.95;1742071;81;20986;-59
2022/05/08 02:35:32;;;;;;;18.48;11.18;;;;;;;10.01;67.75;150170.31;1742134;82;21537;-59
2022/05/08 02:38:00;;;;;;;12.37;9.40;;;;;;;9.95;68.67;150154.75;1742214;82;21022;-59
2022/05/08 02:40:27;;;;;;;15.38;8.70;;;;;;;9.94;69.68;150152.11;1742260;82;21052;-59
2022/05/08 02:42:55;;;;;;;15.88;7.90;;;;;;;9.93;70.17;150150.84;1742604;82;21219;-59
2022/05/08 02:45:25;;;;;;;12.28;6.53;;;;;;;9.88;70.62;150139.16;1742470;81;21993;-59
2022/05/08 02:47:53;;;;;;;17.23;6.12;;;;;;;9.87;71.21;150135.28;1742707;81;21080;-58
2022/05/08 02:50:21;;;;;;;9.48;6.17;;;;;;;9.83;71.75;150124.87;1741344;82;21055;-59
2022/05/08 02:52:48;;;;;;;15.88;6.75;;;;;;;9.81;72.13;150119.69;1740494;82;21053;-60
2022/05/08 03:00:48;;;;;;;14.75;6.28;;;;;;;10.02;73.46;150172.89;1740701;82;20917;-60
2022/05/08 03:03:15;;;;;;;9.83;6.78;;;;;;;10.12;73.65;150198.81;1740265;82;21255;-60
2022/05/08 03:05:46;;;;;;;12.88;6.40;;;;;;;10.23;73.79;150226.06;1740855;82;21052;-61
2022/05/08 03:08:15;;;;;;;12.13;5.35;;;;;;;10.35;74.15;150254.63;1739048;82;21261;-59
2022/05/08 03:13:29;;;;;;;15.30;6.37;;;;;;;10.68;75.21;150339.02;1739599;82;21072;-58
2022/05/08 03:15:56;;;;;;;10.35;6.33;;;;;;;10.87;75.50;150385.75;1739925;82;20886;-61
2022/05/08 03:18:23;;;;;;;10.93;6.47;;;;;;;10.99;74.80;150415.59;1739330;82;20957;-59
2022/05/08 03:20:51;;;;;;;14.95;7.12;;;;;;;11.06;73.91;150433.77;1739700;82;21376;-60
2022/05/08 03:23:18;;;;;;;16.00;7.28;;;;;;;11.10;73.15;150444.14;1739349;82;22127;-62
2022/05/08 03:25:45;;;;;;;16.52;7.95;;;;;;;11.16;72.51;150458.44;1740285;82;21090;-60
2022/05/08 03:28:13;;;;;;;13.53;8.18;;;;;;;11.23;72.00;150475.31;1740565;82;21524;-59
2022/05/08 03:30:40;;;;;;;15.45;7.60;;;;;;;11.30;71.43;150493.47;1740347;82;21127;-59
2022/05/08 03:33:09;;;;;;;13.93;6.00;;;;;;;11.39;71.10;150515.56;1740809;82;21454;-59
2022/05/08 03:35:41;;;;;;;11.70;6.70;;;;;;;11.50;70.71;150542.81;1740573;82;21052;-59
2022/05/08 03:38:08;;;;;;;9.35;5.50;;;;;;;11.60;69.65;150568.78;1740496;82;21016;-59
2022/05/08 03:40:35;;;;;;;11.65;6.33;;;;;;;11.69;68.96;150592.17;1740480;82;21020;-59
2022/05/08 03:43:03;;;;;;;17.00;7.05;;;;;;;11.80;68.71;150618.12;1740519;82;21506;-59
2022/05/08 03:45:30;;;;;;;12.10;6.42;;;;;;;11.87;68.53;150637.63;1740527;82;22124;-59
2022/05/08 03:48:01;;;;;;;14.90;7.10;;;;;;;11.94;68.16;150653.25;1743272;82;20942;-59
2022/05/08 03:50:29;;;;;;;12.53;6.85;;;;;;;12.00;67.74;150668.81;1740142;82;21060;-59
2022/05/08 03:52:58;;;;;;;13.15;7.45;;;;;;;12.08;67.54;150689.63;1740445;82;21482;-59
2022/05/08 03:55:26;;;;;;;14.28;8.25;;;;;;;12.18;67.15;150714.31;1740482;82;20980;-60
2022/05/08 03:57:52;;;;;;;16.32;8.30;;;;;;;12.29;66.72;150742.92;1740735;82;22020;-59
2022/05/08 04:00:20;;;;;;;11.93;7.75;;;;;;;12.40;66.44;150768.89;1740262;82;21079;-60
2022/05/08 04:02:48;;;;;;;17.00;7.92;;;;;;;12.52;66.25;150798.77;1740814;82;21009;-60
2022/05/08 04:05:15;;;;;;;17.17;8.13;;;;;;;12.63;66.22;150826.06;1740550;82;21080;-61
2022/05/08 04:07:43;;;;;;;12.58;6.45;;;;;;;12.77;66.25;150862.47;1740631;82;21037;-60
2022/05/08 04:10:10;;;;;;;10.55;6.35;;;;;;;12.93;66.26;150901.44;1740806;82;21033;-60
2022/05/08 04:12:37;;;;;;;16.57;7.15;;;;;;;13.04;66.51;150931.38;1740725;82;20976;-60
2022/05/08 04:17:52;;;;;;;13.68;7.33;;;;;;;13.36;65.70;151010.64;1740814;82;21028;-60
2022/05/08 04:20:20;;;;;;;14.33;6.80;;;;;;;13.55;65.20;151058.83;1740905;82;21084;-60
2022/05/08 04:25:33;;;;;;;14.10;6.08;;;;;;;13.87;64.95;151138.17;1740501;82;21636;-58
2022/05/08 04:28:00;;;;;;;10.93;6.05;;;;;;;14.03;64.98;151179.77;1740587;82;21025;-59
2022/05/08 04:30:27;;;;;;;10.32;6.37;;;;;;;14.20;64.60;151221.41;1740010;82;22182;-59
2022/05/08 04:32:54;;;;;;;12.15;5.55;;;;;;;14.35;64.18;151257.84;1740797;82;20993;-58
2022/05/08 04:35:22;;;;;;;10.90;6.05;;;;;;;14.49;63.80;151292.97;1740529;82;21257;-59
2022/05/08 04:37:50;;;;;;;14.78;5.12;;;;;;;14.63;63.44;151329.44;1740637;82;20941;-59
2022/05/08 04:40:17;;;;;;;11.33;5.60;;;;;;;14.79;63.29;151369.81;1740020;82;21099;-59
2022/05/08 04:42:44;;;;;;;13.78;5.05;;;;;;;14.94;62.86;151406.28;1740510;82;21092;-59
2022/05/08 04:45:12;;;;;;;10.35;4.97;;;;;;;15.08;62.19;151442.69;1740107;82;21072;-58
2022/05/08 04:47:39;;;;;;;7.97;4.20;;;;;;;15.23;61.66;151480.44;1740388;82;21178;-61
2022/05/08 04:50:07;;;;;;;7.62;4.05;;;;;;;15.36;61.14;151512.98;1740641;82;20985;-59
2022/05/08 04:52:34;;;;;;;8.63;4.05;;;;;;;15.49;60.88;151545.58;1740560;82;21076;-59
2022/05/08 04:55:03;;;;;;;8.85;4.25;;;;;;;15.59;60.47;151570.33;1740432;82;21091;-58
2022/05/08 04:57:30;;;;;;;12.33;4.35;;;;;;;15.72;60.42;151604.16;1740351;82;21076;-58
2022/05/08 04:59:58;;;;;;;5.62;3.08;;;;;;;15.86;60.24;151638.05;1719553;82;21240;-59
2022/05/08 05:02:25;;;;;;;5.72;2.62;;;;;;;16.01;59.48;151675.86;1740311;82;21068;-59
2022/05/08 05:04:52;;;;;;;9.28;2.00;;;;;;;16.17;58.88;151716.22;1740862;82;21115;-59
2022/05/08 05:07:19;;;;;;;4.75;2.27;;;;;;;16.28;58.17;151743.59;1740455;82;21045;-58
2022/05/08 05:09:46;;;;;;;8.88;1.85;;;;;;;16.37;57.66;151765.75;1741056;82;21033;-57
2022/05/08 05:12:13;;;;;;;7.45;2.00;;;;;;;16.45;57.06;151787.91;1740114;82;21207;-60
2022/05/08 05:14:40;;;;;;;7.33;2.17;;;;;;;16.55;55.79;151812.66;1740540;82;21045;-59
2022/05/08 05:17:08;;;;;;;5.62;2.22;;;;;;;16.64;54.58;151833.50;1740098;82;21775;-58
2022/05/08 05:19:35;;;;;;;7.40;2.00;;;;;;;16.74;54.44;151859.58;1740261;82;21281;-58
2022/05/08 05:22:03;;;;;;;10.10;2.20;;;;;;;16.88;53.87;151896.05;1739964;82;21022;-59
2022/05/08 05:24:31;;;;;;;4.92;2.00;;;;;;;17.01;52.73;151928.67;1740207;82;21448;-60
2022/05/08 05:26:59;;;;;;;6.62;1.60;;;;;;;17.14;51.40;151961.31;1740467;82;20985;-58
2022/05/08 05:29:26;;;;;;;4.72;1.70;;;;;;;17.21;51.04;151978.22;1740682;82;20972;-58
2022/05/08 05:31:53;;;;;;;3.17;1.52;;;;;;;17.35;50.18;152013.41;1740832;82;21065;-59
2022/05/08 05:34:20;;;;;;;8.48;1.98;;;;;;;17.51;49.93;152053.87;1740366;82;21080;-59
2022/05/08 05:36:47;;;;;;;3.58;1.55;;;;;;;17.66;49.83;152091.69;1740716;82;21215;-59
2022/05/08 05:39:14;;;;;;;4.25;1.50;;;;;;;17.78;49.25;152120.34;1740283;82;20973;-59
2022/05/08 05:41:42;;;;;;;4.78;1.65;;;;;;;17.88;47.61;152147.73;1740888;82;21069;-59
2022/05/08 05:44:09;;;;;;;5.85;1.72;;;;;;;18.01;47.47;152180.39;1740396;82;21036;-58
2022/05/08 05:49:25;;;;;;;5.40;1.60;;;;;;;18.24;45.24;152236.50;1740191;82;21283;-59
2022/05/08 05:51:54;;;;;;;11.60;1.90;;;;;;;18.25;43.89;152240.44;1740660;82;20886;-59
2022/05/08 05:54:21;;;;;;;5.25;1.72;;;;;;;18.24;44.26;152236.50;1740188;82;21096;-59
2022/05/08 05:56:51;;;;;;;7.03;1.40;;;;;;;18.24;44.67;152237.83;1740756;82;20957;-59
2022/05/08 05:59:18;;;;;;;6.00;1.60;;;;;;;18.27;44.93;152245.66;1740543;82;21064;-60
2022/05/08 06:01:46;;;;;;;4.58;1.90;;;;;;;18.30;44.18;152253.47;1740605;82;21174;-60
2022/05/08 06:04:14;;;;;;;6.53;1.50;;;;;;;18.27;44.24;152245.66;1739849;82;21115;-61
2022/05/08 06:06:42;;;;;;;7.83;1.52;;;;;;;18.24;43.82;152237.83;1740303;82;21775;-59
2022/05/08 06:09:10;;;;;;;6.17;1.50;;;;;;;18.22;45.28;152232.56;1740836;82;20965;-61
2022/05/08 06:11:37;;;;;;;3.65;1.70;;;;;;;18.23;45.69;152235.17;1740627;82;21048;-59
2022/05/08 06:14:05;;;;;;;9.33;1.60;;;;;;;18.18;44.38;152222.14;1740525;82;22279;-58
2022/05/08 06:16:32;;;;;;;5.37;1.37;;;;;;;18.18;45.32;152222.14;1740342;82;21471;-59
2022/05/08 06:19:00;;;;;;;9.30;1.40;;;;;;;18.21;45.05;152229.97;1740583;82;20891;-59
2022/05/08 06:21:27;;;;;;;5.95;1.37;;;;;;;18.26;45.29;152243.03;1740542;82;21055;-60
2022/05/08 06:23:54;;;;;;;2.70;1.30;;;;;;;18.30;44.50;152253.47;1740737;82;21009;-59
2022/05/08 06:26:23;;;;;;;9.68;1.40;;;;;;;18.32;44.09;152258.69;1740355;82;21181;-60
2022/05/08 06:28:50;;;;;;;2.27;1.22;;;;;;;18.36;43.59;152266.50;1740870;82;21054;-59
2022/05/08 06:31:21;;;;;;;4.55;1.12;;;;;;;18.39;44.39;152274.33;1740270;82;21371;-58
2022/05/08 06:33:49;;;;;;;3.12;1.30;;;;;;;18.42;44.52;152282.16;1740727;82;21061;-60
2022/05/08 06:36:16;;;;;;;6.15;1.30;;;;;;;18.42;44.28;152282.16;1740438;82;21624;-59
2022/05/08 06:38:44;;;;;;;8.03;1.55;;;;;;;18.40;44.92;152276.94;1740960;82;20981;-60
2022/05/08 06:41:11;;;;;;;4.47;1.30;;;;;;;18.39;44.54;152274.33;1740796;82;21044;-59
2022/05/08 06:43:41;;;;;;;7.42;1.90;;;;;;;18.39;44.26;152275.66;1740765;82;21100;-60
2022/05/08 06:46:10;;;;;;;5.30;1.30;;;;;;;18.38;43.16;152271.72;1740517;82;22168;-58
2022/05/08 06:48:39;;;;;;;5.00;1.30;;;;;;;18.40;44.66;152278.27;1740577;82;21530;-57
2022/05/08 06:51:06;;;;;;;5.87;1.55;;;;;;;18.45;43.30;152289.97;1740288;82;21227;-59
2022/05/08 06:53:33;;;;;;;4.90;1.40;;;;;;;18.47;41.95;152295.23;1737250;82;21056;-58
2022/05/08 06:56:00;;;;;;;6.50;1.65;;;;;;;18.47;43.01;152295.23;1737619;82;20946;-59
2022/05/08 06:58:27;;;;;;;6.97;1.70;;;;;;;18.50;43.19;152303.06;1737070;82;21055;-58
2022/05/08 07:03:43;;;;;;;6.00;1.50;;;;;;;18.68;45.28;152347.38;1743354;82;21245;-58
2022/05/08 07:06:10;;;;;;;5.05;1.30;;;;;;;18.68;44.15;152348.70;1737424;82;21076;-58
2022/05/08 07:08:37;;;;;;;6.70;1.47;;;;;;;18.65;43.94;152339.56;1737386;82;21004;-58
2022/05/08 07:11:04;;;;;;;5.12;1.42;;;;;;;18.61;43.77;152331.73;1737422;82;20953;-59
2022/05/08 07:13:33;;;;;;;4.05;1.52;;;;;;;18.58;45.18;152323.91;1737209;82;21083;-58
2022/05/08 07:16:00;;;;;;;3.60;1.55;;;;;;;18.58;46.45;152323.91;1737964;82;21117;-58
2022/05/08 07:18:27;;;;;;;5.58;1.37;;;;;;;18.61;47.68;152331.73;1736999;82;21103;-58
2022/05/08 07:20:54;;;;;;;7.20;1.70;;;;;;;18.61;47.91;152331.73;1737699;82;20998;-58
2022/05/08 07:23:22;;;;;;;3.62;1.45;;;;;;;18.64;48.11;152338.28;1737154;82;21143;-60
2022/05/08 07:25:51;;;;;;;6.72;1.65;;;;;;;18.65;46.76;152340.89;1737705;82;21001;-59
2022/05/08 07:28:18;;;;;;;7.55;1.92;;;;;;;18.65;46.76;152339.56;1737457;82;21267;-60
2022/05/08 07:30:45;;;;;;;9.45;2.58;;;;;;;18.61;46.78;152331.73;1737855;82;21037;-59
2022/05/08 07:33:16;;;;;;;5.28;1.20;;;;;;;18.64;45.49;152336.95;1736997;82;21049;-59
2022/05/08 07:38:29;;;;;;;4.03;1.20;;;;;;;18.70;43.93;152352.64;1737321;82;21088;-59
2022/05/08 07:40:57;;;;;;;4.47;1.40;;;;;;;18.77;44.29;152370.91;1737418;82;21121;-59
2022/05/08 07:43:25;;;;;;;6.37;1.55;;;;;;;18.80;43.78;152378.72;1737236;82;21033;-59
2022/05/08 07:45:52;;;;;;;3.80;1.20;;;;;;;18.85;43.26;152391.75;1737875;82;21095;-60
2022/05/08 07:48:20;;;;;;;9.95;1.82;;;;;;;18.88;44.28;152399.59;1737066;82;21041;-61
2022/05/08 07:50:47;;;;;;;5.05;1.47;;;;;;;18.92;45.02;152407.45;1737786;82;21080;-61
2022/05/08 07:53:15;;;;;;;6.30;1.62;;;;;;;18.99;43.78;152427.05;1741933;82;21257;-60
2022/05/08 07:55:43;;;;;;;4.83;1.30;;;;;;;19.00;41.44;152428.38;1743418;82;21063;-60
2022/05/08 07:58:11;;;;;;;5.30;1.27;;;;;;;18.95;40.72;152416.56;1743240;82;21099;-59
2022/05/08 08:00:38;;;;;;;6.08;1.55;;;;;;;18.89;41.11;152402.19;1743459;82;21044;-61
2022/05/08 08:03:07;;;;;;;5.42;1.40;;;;;;;18.87;39.83;152395.69;1743202;82;21069;-59
2022/05/08 08:05:36;;;;;;;7.17;1.40;;;;;;;18.84;40.91;152389.16;1743433;82;21269;-58
2022/05/08 08:08:06;;;;;;;2.47;1.42;;;;;;;18.79;42.01;152376.11;1743837;82;21403;-59
2022/05/08 08:10:33;;;;;;;5.10;1.05;;;;;;;18.78;43.25;152373.50;1743480;82;21092;-58
2022/05/08 08:13:01;;;;;;;2.50;1.20;;;;;;;18.77;42.24;152370.91;1743374;82;21332;-59
2022/05/08 08:15:28;;;;;;;3.12;1.20;;;;;;;18.71;42.10;152355.25;1743311;82;21028;-58
2022/05/08 08:17:56;;;;;;;6.65;1.30;;;;;;;18.65;41.37;152340.89;1743562;82;39424;-59
2022/05/08 08:20:24;;;;;;;2.83;1.12;;;;;;;18.63;41.45;152335.67;1743168;82;21107;-58
2022/05/08 08:22:53;;;;;;;3.20;1.27;;;;;;;18.60;40.46;152329.13;1743610;82;21065;-59
2022/05/08 08:25:20;;;;;;;8.60;1.25;;;;;;;18.58;39.88;152323.91;1743345;82;21079;-59
2022/05/08 08:27:47;;;;;;;3.37;1.22;;;;;;;18.58;40.26;152323.91;1749004;80;21496;-58
2022/05/08 08:30:15;;;;;;;4.75;1.12;;;;;;;18.62;40.64;152333.06;1717307;83;21244;-59
2022/05/08 08:32:43;;;;;;;6.50;1.30;;;;;;;18.69;40.72;152350.03;1737669;82;21434;-59
2022/05/08 08:35:10;;;;;;;4.65;1.10;;;;;;;18.73;41.70;152360.47;1737389;82;21032;-60
2022/05/08 08:37:37;;;;;;;8.00;1.62;;;;;;;18.77;39.94;152370.91;1737507;82;20997;-60
2022/05/08 08:40:05;;;;;;;4.40;1.20;;;;;;;18.76;39.12;152368.30;1737561;82;20997;-59
2022/05/08 08:42:33;;;;;;;3.60;1.30;;;;;;;18.78;39.17;152373.50;1737823;82;21238;-60
2022/05/08 08:48:09;;;;;;;6.80;1.20;;;;;;;18.79;39.58;152374.78;1749061;82;21115;-59
2022/05/08 08:50:35;;;;;;;4.50;1.85;;;;;;;18.77;41.13;152370.91;1738027;81;21020;-58
2022/05/08 08:53:05;;;;;;;7.47;1.80;;;;;;;18.75;41.28;152365.69;1734553;82;21030;-58
2022/05/08 08:55:33;;;;;;;7.65;2.17;;;;;;;18.66;42.12;152343.50;1732162;82;20961;-60
2022/05/08 08:58:00;;;;;;;3.72;1.25;;;;;;;18.58;40.70;152323.91;1732563;82;21364;-59
2022/05/08 09:00:27;;;;;;;4.05;1.30;;;;;;;18.52;41.23;152308.27;1731856;82;21457;-61
2022/05/08 09:02:55;;;;;;;2.72;1.37;;;;;;;18.38;40.61;152271.72;1732511;82;21057;-60
2022/05/08 09:05:26;;;;;;;8.33;1.35;;;;;;;18.24;41.36;152237.83;1731736;82;21795;-59
2022/05/08 09:07:54;;;;;;;6.35;1.30;;;;;;;18.09;42.55;152198.69;1732004;82;21404;-59
2022/05/08 09:10:26;;;;;;;7.37;1.40;;;;;;;17.88;42.63;152146.45;1731931;82;21040;-60
2022/05/08 09:13:01;;;;;;;6.65;1.40;;;;;;;17.74;44.20;152111.25;1732283;82;21431;-60
2022/05/08 09:15:35;;;;;;;3.45;1.20;;;;;;;17.70;44.27;152102.09;1731860;82;22648;-59
2022/05/08 09:18:04;;;;;;;3.05;1.30;;;;;;;17.65;42.92;152089.06;1731574;82;21166;-60
2022/05/08 09:20:43;;;;;;;3.52;1.20;;;;;;;17.65;44.33;152089.06;1731773;82;21763;-58
2022/05/08 09:23:16;;;;;;;4.47;1.35;;;;;;;17.64;43.60;152085.14;1731988;82;21064;-57
2022/05/08 09:25:57;;;;;;;3.37;1.30;;;;;;;17.66;42.28;152091.69;1731648;82;21040;-60
2022/05/08 09:28:33;;;;;;;4.00;1.17;;;;;;;17.71;43.75;152104.70;1731106;82;20996;-60
2022/05/08 09:31:15;;;;;;;6.87;1.50;;;;;;;17.72;43.54;152107.31;1731788;82;21010;-61
2022/05/08 09:33:47;;;;;;;4.60;1.47;;;;;;;17.66;41.90;152091.69;1742911;81;21948;-59
2022/05/08 09:36:27;;;;;;;8.23;1.30;;;;;;;17.60;42.83;152076.05;1743035;82;21556;-60
2022/05/08 09:38:59;;;;;;;3.47;1.00;;;;;;;17.56;42.91;152065.56;1737381;82;21029;-60
2022/05/08 09:41:28;;;;;;;4.85;1.35;;;;;;;17.53;42.86;152057.75;1737061;82;21104;-58
2022/05/08 09:44:14;;;;;;;4.35;1.40;;;;;;;17.52;42.76;152055.16;1737085;82;21490;-60
2022/05/08 09:46:45;;;;;;;6.60;1.40;;;;;;;17.45;42.17;152038.19;1737163;82;21203;-61
2022/05/08 09:49:14;;;;;;;2.80;1.30;;;;;;;17.42;41.58;152031.70;1736936;82;21052;-60
2022/05/08 09:51:42;;;;;;;2.10;1.30;;;;;;;17.44;41.39;152036.91;1737188;82;21085;-59
2022/05/08 09:54:09;;;;;;;7.10;1.20;;;;;;;17.51;41.16;152052.55;1741452;82;21704;-59
2022/05/08 09:56:36;;;;;;;4.30;1.30;;;;;;;17.58;40.72;152070.83;1742626;81;21394;-59
2022/05/08 09:59:10;;;;;;;4.45;1.17;;;;;;;17.59;40.19;152073.44;1742395;82;21266;-59
2022/05/08 10:01:39;;;;;;;2.90;1.15;;;;;;;17.59;40.25;152073.44;1742634;82;21509;-58
2022/05/08 10:04:06;;;;;;;5.40;1.50;;;;;;;17.59;40.74;152074.72;1742284;82;20973;-59
2022/05/08 10:06:37;;;;;;;3.45;1.27;;;;;;;17.65;39.92;152087.75;1742185;82;21079;-60
2022/05/08 10:14:36;;;;;;;3.17;1.30;;;;;;;17.61;39.45;152078.66;1742216;82;21319;-59
2022/05/08 10:17:05;;;;;;;3.87;1.20;;;;;;;17.56;40.63;152065.56;1742963;82;21025;-58
2022/05/08 10:19:37;;;;;;;6.35;1.22;;;;;;;17.55;40.62;152062.97;1742912;82;21087;-58
2022/05/08 10:22:10;;;;;;;3.55;1.30;;;;;;;17.56;40.07;152065.56;1742925;82;21058;-57
2022/05/08 10:24:43;;;;;;;2.60;1.07;;;;;;;17.58;39.88;152070.83;1741369;82;21187;-58
2022/05/08 10:27:23;;;;;;;3.67;1.25;;;;;;;17.60;39.04;152076.05;1742279;82;21559;-58
2022/05/08 10:29:55;;;;;;;5.22;1.30;;;;;;;17.62;38.26;152081.25;1742508;82;21009;-59
2022/05/08 10:32:36;;;;;;;2.12;1.07;;;;;;;17.59;39.04;152074.72;1740674;81;21040;-59
2022/05/08 10:35:26;;;;;;;4.53;1.27;;;;;;;17.59;38.96;152073.44;1740469;82;21127;-62
2022/05/08 10:38:05;;;;;;;5.75;1.65;;;;;;;17.56;39.33;152065.56;1742625;82;21254;-60
2022/05/08 10:40:34;;;;;;;5.65;1.15;;;;;;;17.55;37.90;152062.97;1741905;81;21047;-60
2022/05/08 10:43:18;;;;;;;3.12;1.22;;;;;;;17.46;38.64;152042.12;1742661;82;20977;-61
2022/05/08 10:45:46;;;;;;;3.17;1.20;;;;;;;17.39;40.34;152023.89;1741265;81;21091;-60
2022/05/08 10:48:16;;;;;;;4.53;1.30;;;;;;;17.39;40.34;152023.89;1742845;82;21689;-61
2022/05/08 10:50:49;;;;;;;3.10;1.12;;;;;;;17.38;40.74;152021.28;1742534;82;21452;-60
2022/05/08 10:53:23;;;;;;;4.70;1.52;;;;;;;17.38;40.57;152021.28;1743118;81;21513;-61
2022/05/08 10:55:51;;;;;;;2.77;1.00;;;;;;;17.38;39.98;152021.28;1743674;82;21006;-61
2022/05/08 10:58:20;;;;;;;5.40;1.20;;;;;;;17.37;39.83;152018.67;1716781;82;21576;-61
2022/05/08 11:00:48;;;;;;;4.58;1.30;;;;;;;17.31;39.26;152003.00;1737968;82;21035;-61
2022/05/08 11:03:22;;;;;;;2.60;1.22;;;;;;;17.27;39.60;151992.56;1737736;82;21109;-61
2022/05/08 11:05:48;;;;;;;2.50;1.40;;;;;;;17.26;40.25;151989.97;1738427;82;21029;-61
2022/05/08 11:08:22;;;;;;;3.58;1.55;;;;;;;17.30;40.33;152001.72;1737602;82;21028;-61
2022/05/08 11:11:07;;;;;;;5.85;1.22;;;;;;;17.33;40.88;152008.20;1738451;82;21025;-61
2022/05/08 11:13:45;;;;;;;3.70;1.27;;;;;;;17.33;40.08;152008.20;1737680;82;21537;-59
2022/05/08 11:16:37;;;;;;;2.25;1.25;;;;;;;17.35;39.91;152013.41;1737864;82;21906;-61
2022/05/08 11:19:05;;;;;;;5.60;1.20;;;;;;;17.39;38.80;152023.89;1737513;82;21469;-59
2022/05/08 11:21:33;;;;;;;2.37;1.20;;;;;;;17.41;39.37;152027.77;1737652;81;21037;-61
2022/05/08 11:24:00;;;;;;;1.77;1.20;;;;;;;17.37;39.36;152018.67;1737633;82;21049;-59
2022/05/08 11:26:30;;;;;;;2.50;1.12;;;;;;;17.34;38.87;152010.81;1737287;82;21220;-59
2022/05/08 11:28:58;;;;;;;6.80;1.30;;;;;;;17.32;39.04;152005.59;1737926;81;21791;-61
2022/05/08 11:31:28;;;;;;;2.92;1.40;;;;;;;17.31;38.99;152003.00;1737885;82;21048;-61
2022/05/08 11:36:45;;;;;;;2.77;1.10;;;;;;;17.30;39.00;152000.39;1737794;82;21040;-61
2022/05/08 11:39:14;;;;;;;5.45;1.35;;;;;;;17.30;38.88;152001.72;1737473;82;21071;-61
2022/05/08 11:41:51;;;;;;;2.75;1.20;;;;;;;17.31;38.82;152003.00;1737833;82;21053;-60
2022/05/08 11:44:21;;;;;;;7.47;1.42;;;;;;;17.35;38.60;152013.41;1737887;82;21069;-59
2022/05/08 11:46:50;;;;;;;2.02;1.15;;;;;;;17.40;38.72;152025.16;1737993;82;21044;-59
2022/05/08 11:49:30;;;;;;;3.45;1.20;;;;;;;17.49;39.20;152047.33;1737894;82;21049;-59
2022/05/08 11:52:01;;;;;;;6.05;1.20;;;;;;;17.56;39.07;152065.56;1737852;82;21375;-60
2022/05/08 11:54:35;;;;;;;4.62;1.40;;;;;;;17.61;38.28;152078.66;1737603;82;21302;-60
2022/05/08 11:57:24;;;;;;;3.77;1.10;;;;;;;17.64;36.91;152086.47;1737388;81;21046;-59
2022/05/08 12:00:08;;;;;;;4.30;1.40;;;;;;;17.61;37.90;152079.94;1738053;82;21041;-60
2022/05/08 12:02:49;;;;;;;3.00;1.07;;;;;;;17.61;37.87;152078.66;1709983;82;21049;-61
2022/05/08 12:05:21;;;;;;;4.72;1.20;;;;;;;17.60;38.06;152076.05;1737774;82;21044;-59